sensor_id;sensor_type;location;lat;lon;timestamp;P1;durP1;ratioP1;P2;durP2;ratioP2
20511;SDS011;10414;52.074;5.126;2022-09-20T00:00:29;5.45;;;1.02;;
20511;SDS011;10414;52.074;5.126;2022-09-20T00:02:56;4.53;;;0.95;;
20511;SDS011;10414;52.074;5.126;2022-09-20T00:05:23;3.15;;;0.98;;
20511;SDS011;10414;52.074;5.126;2022-09-20T00:07:50;3.70;;;0.90;;
20511;SDS011;10414;52.074;5.126;2022-09-20T00:10:17;5.80;;;1.10;;
20511;SDS011;10414;52.074;5.126;2022-09-20T00:12:47;6.80;;;1.15;;
20511;SDS011;10414;52.074;5.126;2022-09-20T00:15:14;5.63;;;1.10;;
20511;SDS011;10414;52.074;5.126;2022-09-20T00:17:41;5.78;;;1.00;;
20511;SDS011;10414;52.074;5.126;2022-09-20T00:20:08;4.82;;;1.35;;
20511;SDS011;10414;52.074;5.126;2022-09-20T00:22:35;4.95;;;1.00;;
20511;SDS011;10414;52.074;5.126;2022-09-20T00:25:02;5.57;;;1.00;;
20511;SDS011;10414;52.074;5.126;2022-09-20T00:27:30;7.07;;;1.27;;
20511;SDS011;10414;52.074;5.126;2022-09-20T00:29:58;4.50;;;1.15;;
20511;SDS011;10414;52.074;5.126;2022-09-20T00:32:25;6.60;;;0.90;;
20511;SDS011;10414;52.074;5.126;2022-09-20T00:34:52;6.45;;;1.00;;
20511;SDS011;10414;52.074;5.126;2022-09-20T00:37:35;7.63;;;1.30;;
20511;SDS011;10414;52.074;5.126;2022-09-20T00:40:03;9.68;;;1.60;;
20511;SDS011;10414;52.074;5.126;2022-09-20T00:42:32;6.47;;;1.30;;
20511;SDS011;10414;52.074;5.126;2022-09-20T00:45:00;6.97;;;1.80;;
20511;SDS011;10414;52.074;5.126;2022-09-20T00:47:33;5.70;;;1.65;;
20511;SDS011;10414;52.074;5.126;2022-09-20T00:50:11;7.60;;;1.35;;
20511;SDS011;10414;52.074;5.126;2022-09-20T00:52:46;5.43;;;1.50;;
20511;SDS011;10414;52.074;5.126;2022-09-20T00:55:17;7.07;;;1.60;;
20511;SDS011;10414;52.074;5.126;2022-09-20T00:57:45;8.30;;;1.40;;
20511;SDS011;10414;52.074;5.126;2022-09-20T01:00:14;6.22;;;1.35;;
20511;SDS011;10414;52.074;5.126;2022-09-20T01:02:43;7.35;;;1.52;;
20511;SDS011;10414;52.074;5.126;2022-09-20T01:05:13;7.68;;;1.40;;
20511;SDS011;10414;52.074;5.126;2022-09-20T01:07:43;9.25;;;1.90;;
20511;SDS011;10414;52.074;5.126;2022-09-20T01:10:11;4.85;;;1.38;;
20511;SDS011;10414;52.074;5.126;2022-09-20T01:12:39;7.28;;;1.65;;
20511;SDS011;10414;52.074;5.126;2022-09-20T01:15:10;6.70;;;1.30;;
20511;SDS011;10414;52.074;5.126;2022-09-20T01:17:41;6.85;;;1.60;;
20511;SDS011;10414;52.074;5.126;2022-09-20T01:20:13;7.10;;;1.60;;
20511;SDS011;10414;52.074;5.126;2022-09-20T01:22:47;8.00;;;1.65;;
20511;SDS011;10414;52.074;5.126;2022-09-20T01:25:48;7.32;;;1.88;;
20511;SDS011;10414;52.074;5.126;2022-09-20T01:28:46;6.65;;;1.70;;
20511;SDS011;10414;52.074;5.126;2022-09-20T01:31:16;5.32;;;1.42;;
20511;SDS011;10414;52.074;5.126;2022-09-20T01:33:51;7.63;;;1.80;;
20511;SDS011;10414;52.074;5.126;2022-09-20T01:36:22;4.47;;;1.55;;
20511;SDS011;10414;52.074;5.126;2022-09-20T01:38:54;8.45;;;1.90;;
20511;SDS011;10414;52.074;5.126;2022-09-20T01:41:30;5.32;;;1.50;;
20511;SDS011;10414;52.074;5.126;2022-09-20T01:44:04;7.35;;;2.20;;
20511;SDS011;10414;52.074;5.126;2022-09-20T01:46:36;6.97;;;1.65;;
20511;SDS011;10414;52.074;5.126;2022-09-20T01:49:08;4.10;;;1.63;;
20511;SDS011;10414;52.074;5.126;2022-09-20T01:51:57;4.00;;;1.67;;
20511;SDS011;10414;52.074;5.126;2022-09-20T01:54:46;6.68;;;1.85;;
20511;SDS011;10414;52.074;5.126;2022-09-20T01:57:45;7.43;;;1.90;;
20511;SDS011;10414;52.074;5.126;2022-09-20T02:00:44;7.03;;;1.90;;
20511;SDS011;10414;52.074;5.126;2022-09-20T02:03:30;7.60;;;1.88;;
20511;SDS011;10414;52.074;5.126;2022-09-20T02:09:24;5.95;;;1.80;;
20511;SDS011;10414;52.074;5.126;2022-09-20T02:12:16;9.73;;;1.60;;
20511;SDS011;10414;52.074;5.126;2022-09-20T02:14:52;6.45;;;1.55;;
20511;SDS011;10414;52.074;5.126;2022-09-20T02:17:29;10.70;;;2.03;;
20511;SDS011;10414;52.074;5.126;2022-09-20T02:20:06;9.90;;;2.20;;
20511;SDS011;10414;52.074;5.126;2022-09-20T02:22:47;7.68;;;1.70;;
20511;SDS011;10414;52.074;5.126;2022-09-20T02:25:33;4.63;;;1.80;;
20511;SDS011;10414;52.074;5.126;2022-09-20T02:28:15;6.35;;;1.40;;
20511;SDS011;10414;52.074;5.126;2022-09-20T02:30:51;6.72;;;1.85;;
20511;SDS011;10414;52.074;5.126;2022-09-20T02:33:34;9.07;;;1.98;;
20511;SDS011;10414;52.074;5.126;2022-09-20T02:36:19;6.22;;;2.00;;
20511;SDS011;10414;52.074;5.126;2022-09-20T02:38:58;7.15;;;2.00;;
20511;SDS011;10414;52.074;5.126;2022-09-20T02:44:38;9.18;;;2.00;;
20511;SDS011;10414;52.074;5.126;2022-09-20T02:47:20;5.80;;;1.92;;
20511;SDS011;10414;52.074;5.126;2022-09-20T02:49:58;5.10;;;1.88;;
20511;SDS011;10414;52.074;5.126;2022-09-20T02:52:43;6.10;;;1.60;;
20511;SDS011;10414;52.074;5.126;2022-09-20T02:55:17;9.00;;;1.80;;
20511;SDS011;10414;52.074;5.126;2022-09-20T02:57:54;4.90;;;1.63;;
20511;SDS011;10414;52.074;5.126;2022-09-20T03:00:31;5.70;;;1.70;;
20511;SDS011;10414;52.074;5.126;2022-09-20T03:03:07;5.93;;;1.90;;
20511;SDS011;10414;52.074;5.126;2022-09-20T03:05:46;7.95;;;2.22;;
20511;SDS011;10414;52.074;5.126;2022-09-20T03:08:25;7.55;;;1.88;;
20511;SDS011;10414;52.074;5.126;2022-09-20T03:11:01;7.55;;;2.50;;
20511;SDS011;10414;52.074;5.126;2022-09-20T03:13:42;9.35;;;2.15;;
20511;SDS011;10414;52.074;5.126;2022-09-20T03:16:21;6.10;;;2.00;;
20511;SDS011;10414;52.074;5.126;2022-09-20T03:19:01;5.95;;;1.80;;
20511;SDS011;10414;52.074;5.126;2022-09-20T03:21:40;6.07;;;1.80;;
20511;SDS011;10414;52.074;5.126;2022-09-20T03:24:18;7.10;;;2.00;;
20511;SDS011;10414;52.074;5.126;2022-09-20T03:26:54;5.88;;;2.00;;
20511;SDS011;10414;52.074;5.126;2022-09-20T03:29:33;8.75;;;2.10;;
20511;SDS011;10414;52.074;5.126;2022-09-20T03:34:45;5.88;;;2.20;;
20511;SDS011;10414;52.074;5.126;2022-09-20T03:37:24;7.03;;;2.10;;
20511;SDS011;10414;52.074;5.126;2022-09-20T03:43:12;11.07;;;2.45;;
20511;SDS011;10414;52.074;5.126;2022-09-20T03:45:54;5.65;;;2.88;;
20511;SDS011;10414;52.074;5.126;2022-09-20T03:51:32;10.60;;;2.33;;
20511;SDS011;10414;52.074;5.126;2022-09-20T03:57:05;9.63;;;3.25;;
20511;SDS011;10414;52.074;5.126;2022-09-20T04:02:45;7.10;;;2.42;;
20511;SDS011;10414;52.074;5.126;2022-09-20T04:05:27;6.55;;;2.25;;
20511;SDS011;10414;52.074;5.126;2022-09-20T04:08:03;10.02;;;2.92;;
20511;SDS011;10414;52.074;5.126;2022-09-20T04:10:47;6.72;;;2.08;;
20511;SDS011;10414;52.074;5.126;2022-09-20T04:13:30;6.90;;;2.33;;
20511;SDS011;10414;52.074;5.126;2022-09-20T04:16:08;6.43;;;2.45;;
20511;SDS011;10414;52.074;5.126;2022-09-20T04:18:44;9.00;;;2.00;;
20511;SDS011;10414;52.074;5.126;2022-09-20T04:21:16;6.88;;;2.03;;
20511;SDS011;10414;52.074;5.126;2022-09-20T04:23:49;9.88;;;2.60;;
20511;SDS011;10414;52.074;5.126;2022-09-20T04:26:23;6.65;;;2.20;;
20511;SDS011;10414;52.074;5.126;2022-09-20T04:28:53;8.27;;;2.50;;
20511;SDS011;10414;52.074;5.126;2022-09-20T04:31:28;7.57;;;2.35;;
20511;SDS011;10414;52.074;5.126;2022-09-20T04:34:02;9.20;;;2.60;;
20511;SDS011;10414;52.074;5.126;2022-09-20T04:36:45;11.20;;;2.50;;
20511;SDS011;10414;52.074;5.126;2022-09-20T04:39:22;7.47;;;2.42;;
20511;SDS011;10414;52.074;5.126;2022-09-20T04:42:14;7.68;;;2.63;;
20511;SDS011;10414;52.074;5.126;2022-09-20T04:54:46;7.70;;;2.70;;
20511;SDS011;10414;52.074;5.126;2022-09-20T05:00:56;7.65;;;2.63;;
20511;SDS011;10414;52.074;5.126;2022-09-20T05:04:02;8.95;;;2.80;;
20511;SDS011;10414;52.074;5.126;2022-09-20T05:06:57;8.90;;;2.65;;
20511;SDS011;10414;52.074;5.126;2022-09-20T05:09:47;6.15;;;2.47;;
20511;SDS011;10414;52.074;5.126;2022-09-20T05:12:47;9.85;;;2.50;;
20511;SDS011;10414;52.074;5.126;2022-09-20T05:15:34;10.23;;;2.70;;
20511;SDS011;10414;52.074;5.126;2022-09-20T05:21:12;7.22;;;2.80;;
20511;SDS011;10414;52.074;5.126;2022-09-20T05:24:05;8.50;;;2.70;;
20511;SDS011;10414;52.074;5.126;2022-09-20T05:26:45;7.55;;;2.88;;
20511;SDS011;10414;52.074;5.126;2022-09-20T05:29:27;8.98;;;2.42;;
20511;SDS011;10414;52.074;5.126;2022-09-20T05:32:00;8.15;;;2.60;;
20511;SDS011;10414;52.074;5.126;2022-09-20T05:34:33;9.52;;;2.97;;
20511;SDS011;10414;52.074;5.126;2022-09-20T05:37:11;7.53;;;2.78;;
20511;SDS011;10414;52.074;5.126;2022-09-20T05:39:48;11.82;;;3.28;;
20511;SDS011;10414;52.074;5.126;2022-09-20T05:42:24;7.72;;;3.10;;
20511;SDS011;10414;52.074;5.126;2022-09-20T05:45:06;7.85;;;2.92;;
20511;SDS011;10414;52.074;5.126;2022-09-20T05:47:47;9.63;;;3.03;;
20511;SDS011;10414;52.074;5.126;2022-09-20T05:50:34;9.60;;;2.78;;
20511;SDS011;10414;52.074;5.126;2022-09-20T05:53:17;9.20;;;2.85;;
20511;SDS011;10414;52.074;5.126;2022-09-20T05:56:04;6.20;;;2.33;;
20511;SDS011;10414;52.074;5.126;2022-09-20T05:58:56;8.70;;;2.75;;
20511;SDS011;10414;52.074;5.126;2022-09-20T06:01:38;7.68;;;2.10;;
20511;SDS011;10414;52.074;5.126;2022-09-20T06:04:11;9.50;;;2.70;;
20511;SDS011;10414;52.074;5.126;2022-09-20T06:06:49;7.78;;;2.75;;
20511;SDS011;10414;52.074;5.126;2022-09-20T06:09:28;7.80;;;2.50;;
20511;SDS011;10414;52.074;5.126;2022-09-20T06:17:41;8.10;;;3.00;;
20511;SDS011;10414;52.074;5.126;2022-09-20T06:20:16;9.93;;;2.90;;
20511;SDS011;10414;52.074;5.126;2022-09-20T06:22:52;6.40;;;2.25;;
20511;SDS011;10414;52.074;5.126;2022-09-20T06:25:23;5.22;;;2.00;;
20511;SDS011;10414;52.074;5.126;2022-09-20T06:27:57;7.22;;;2.10;;
20511;SDS011;10414;52.074;5.126;2022-09-20T06:30:27;5.43;;;1.85;;
20511;SDS011;10414;52.074;5.126;2022-09-20T06:32:58;6.57;;;1.80;;
20511;SDS011;10414;52.074;5.126;2022-09-20T06:35:29;6.45;;;1.90;;
20511;SDS011;10414;52.074;5.126;2022-09-20T06:38:05;6.47;;;1.42;;
20511;SDS011;10414;52.074;5.126;2022-09-20T06:41:00;8.33;;;2.00;;
20511;SDS011;10414;52.074;5.126;2022-09-20T06:43:46;7.63;;;2.25;;
20511;SDS011;10414;52.074;5.126;2022-09-20T06:46:14;5.97;;;1.95;;
20511;SDS011;10414;52.074;5.126;2022-09-20T06:48:41;5.75;;;2.10;;
20511;SDS011;10414;52.074;5.126;2022-09-20T06:51:08;5.88;;;1.70;;
20511;SDS011;10414;52.074;5.126;2022-09-20T06:53:38;6.90;;;1.85;;
20511;SDS011;10414;52.074;5.126;2022-09-20T06:58:33;6.60;;;2.20;;
20511;SDS011;10414;52.074;5.126;2022-09-20T07:01:00;5.68;;;1.75;;
20511;SDS011;10414;52.074;5.126;2022-09-20T07:03:27;5.35;;;1.80;;
20511;SDS011;10414;52.074;5.126;2022-09-20T07:05:55;7.18;;;1.45;;
20511;SDS011;10414;52.074;5.126;2022-09-20T07:08:24;7.85;;;2.00;;
20511;SDS011;10414;52.074;5.126;2022-09-20T07:10:52;7.93;;;2.15;;
20511;SDS011;10414;52.074;5.126;2022-09-20T07:13:19;11.52;;;2.10;;
20511;SDS011;10414;52.074;5.126;2022-09-20T07:15:46;7.00;;;1.60;;
20511;SDS011;10414;52.074;5.126;2022-09-20T07:18:14;7.32;;;1.90;;
20511;SDS011;10414;52.074;5.126;2022-09-20T07:20:41;5.63;;;1.83;;
20511;SDS011;10414;52.074;5.126;2022-09-20T07:23:08;8.10;;;2.20;;
20511;SDS011;10414;52.074;5.126;2022-09-20T07:25:35;5.95;;;2.13;;
20511;SDS011;10414;52.074;5.126;2022-09-20T07:28:05;7.13;;;2.05;;
20511;SDS011;10414;52.074;5.126;2022-09-20T07:30:32;7.63;;;2.00;;
20511;SDS011;10414;52.074;5.126;2022-09-20T07:32:59;12.30;;;2.17;;
20511;SDS011;10414;52.074;5.126;2022-09-20T07:35:26;5.45;;;2.40;;
20511;SDS011;10414;52.074;5.126;2022-09-20T07:37:56;6.93;;;2.08;;
20511;SDS011;10414;52.074;5.126;2022-09-20T07:40:23;8.25;;;2.10;;
20511;SDS011;10414;52.074;5.126;2022-09-20T07:42:51;7.55;;;2.30;;
20511;SDS011;10414;52.074;5.126;2022-09-20T07:45:19;8.77;;;2.42;;
20511;SDS011;10414;52.074;5.126;2022-09-20T07:47:46;8.75;;;2.38;;
20511;SDS011;10414;52.074;5.126;2022-09-20T07:50:13;10.18;;;2.80;;
20511;SDS011;10414;52.074;5.126;2022-09-20T07:52:40;7.03;;;3.15;;
20511;SDS011;10414;52.074;5.126;2022-09-20T07:55:07;11.20;;;2.45;;
20511;SDS011;10414;52.074;5.126;2022-09-20T07:57:35;10.45;;;2.10;;
20511;SDS011;10414;52.074;5.126;2022-09-20T08:00:04;9.73;;;2.75;;
20511;SDS011;10414;52.074;5.126;2022-09-20T08:02:34;6.38;;;1.50;;
20511;SDS011;10414;52.074;5.126;2022-09-20T08:05:01;7.88;;;1.70;;
20511;SDS011;10414;52.074;5.126;2022-09-20T08:07:29;6.72;;;1.00;;
20511;SDS011;10414;52.074;5.126;2022-09-20T08:09:55;5.60;;;1.40;;
20511;SDS011;10414;52.074;5.126;2022-09-20T08:12:22;6.90;;;1.17;;
20511;SDS011;10414;52.074;5.126;2022-09-20T08:14:50;4.93;;;1.05;;
20511;SDS011;10414;52.074;5.126;2022-09-20T08:17:17;5.63;;;1.10;;
20511;SDS011;10414;52.074;5.126;2022-09-20T08:19:45;7.53;;;1.17;;
20511;SDS011;10414;52.074;5.126;2022-09-20T08:22:12;4.65;;;1.30;;
20511;SDS011;10414;52.074;5.126;2022-09-20T08:24:39;8.05;;;1.10;;
20511;SDS011;10414;52.074;5.126;2022-09-20T08:27:08;6.70;;;1.20;;
20511;SDS011;10414;52.074;5.126;2022-09-20T08:29:35;4.85;;;1.10;;
20511;SDS011;10414;52.074;5.126;2022-09-20T08:32:01;7.90;;;1.55;;
20511;SDS011;10414;52.074;5.126;2022-09-20T08:34:28;6.88;;;1.15;;
20511;SDS011;10414;52.074;5.126;2022-09-20T08:36:57;8.32;;;1.17;;
20511;SDS011;10414;52.074;5.126;2022-09-20T08:39:24;5.20;;;1.48;;
20511;SDS011;10414;52.074;5.126;2022-09-20T08:41:52;7.07;;;1.20;;
20511;SDS011;10414;52.074;5.126;2022-09-20T08:44:21;6.20;;;1.25;;
20511;SDS011;10414;52.074;5.126;2022-09-20T08:49:29;7.18;;;1.23;;
20511;SDS011;10414;52.074;5.126;2022-09-20T08:51:58;8.65;;;1.00;;
20511;SDS011;10414;52.074;5.126;2022-09-20T08:54:27;6.15;;;1.05;;
20511;SDS011;10414;52.074;5.126;2022-09-20T08:56:57;7.15;;;1.13;;
20511;SDS011;10414;52.074;5.126;2022-09-20T08:59:29;4.18;;;0.90;;
20511;SDS011;10414;52.074;5.126;2022-09-20T09:01:57;4.68;;;1.02;;
20511;SDS011;10414;52.074;5.126;2022-09-20T09:04:27;3.92;;;0.90;;
20511;SDS011;10414;52.074;5.126;2022-09-20T09:07:01;8.35;;;1.15;;
20511;SDS011;10414;52.074;5.126;2022-09-20T09:09:28;5.53;;;0.93;;
20511;SDS011;10414;52.074;5.126;2022-09-20T09:11:58;9.02;;;1.95;;
20511;SDS011;10414;52.074;5.126;2022-09-20T09:14:25;7.13;;;0.95;;
20511;SDS011;10414;52.074;5.126;2022-09-20T09:17:13;6.90;;;0.80;;
20511;SDS011;10414;52.074;5.126;2022-09-20T09:19:42;4.20;;;0.93;;
20511;SDS011;10414;52.074;5.126;2022-09-20T09:22:16;7.20;;;1.37;;
20511;SDS011;10414;52.074;5.126;2022-09-20T09:24:45;7.78;;;1.08;;
20511;SDS011;10414;52.074;5.126;2022-09-20T09:27:31;7.50;;;0.93;;
20511;SDS011;10414;52.074;5.126;2022-09-20T09:29:59;4.22;;;0.70;;
20511;SDS011;10414;52.074;5.126;2022-09-20T09:32:27;2.85;;;0.60;;
20511;SDS011;10414;52.074;5.126;2022-09-20T09:34:55;5.03;;;0.80;;
20511;SDS011;10414;52.074;5.126;2022-09-20T09:37:34;7.13;;;1.08;;
20511;SDS011;10414;52.074;5.126;2022-09-20T09:40:10;5.97;;;0.80;;
20511;SDS011;10414;52.074;5.126;2022-09-20T09:42:48;4.20;;;0.70;;
20511;SDS011;10414;52.074;5.126;2022-09-20T09:45:23;4.60;;;0.88;;
20511;SDS011;10414;52.074;5.126;2022-09-20T09:47:59;5.70;;;1.02;;
20511;SDS011;10414;52.074;5.126;2022-09-20T09:50:29;5.65;;;0.82;;
20511;SDS011;10414;52.074;5.126;2022-09-20T09:53:00;2.13;;;0.60;;
20511;SDS011;10414;52.074;5.126;2022-09-20T09:55:43;4.65;;;0.60;;
20511;SDS011;10414;52.074;5.126;2022-09-20T09:58:25;4.75;;;0.73;;
20511;SDS011;10414;52.074;5.126;2022-09-20T10:01:01;3.80;;;0.70;;
20511;SDS011;10414;52.074;5.126;2022-09-20T10:03:33;4.57;;;0.90;;
20511;SDS011;10414;52.074;5.126;2022-09-20T10:06:13;7.57;;;0.90;;
20511;SDS011;10414;52.074;5.126;2022-09-20T10:08:54;3.10;;;0.70;;
20511;SDS011;10414;52.074;5.126;2022-09-20T10:11:29;5.55;;;1.23;;
20511;SDS011;10414;52.074;5.126;2022-09-20T10:14:10;3.40;;;0.73;;
20511;SDS011;10414;52.074;5.126;2022-09-20T10:16:52;7.00;;;1.27;;
20511;SDS011;10414;52.074;5.126;2022-09-20T10:19:32;2.25;;;0.68;;
20511;SDS011;10414;52.074;5.126;2022-09-20T10:22:13;3.20;;;0.80;;
20511;SDS011;10414;52.074;5.126;2022-09-20T10:24:51;2.63;;;0.63;;
20511;SDS011;10414;52.074;5.126;2022-09-20T10:27:33;4.22;;;1.00;;
20511;SDS011;10414;52.074;5.126;2022-09-20T10:30:13;3.10;;;0.68;;
20511;SDS011;10414;52.074;5.126;2022-09-20T10:32:46;6.10;;;1.23;;
20511;SDS011;10414;52.074;5.126;2022-09-20T10:35:25;6.97;;;1.35;;
20511;SDS011;10414;52.074;5.126;2022-09-20T10:38:04;7.45;;;1.35;;
20511;SDS011;10414;52.074;5.126;2022-09-20T10:40:40;5.53;;;1.15;;
20511;SDS011;10414;52.074;5.126;2022-09-20T10:43:41;3.35;;;0.90;;
20511;SDS011;10414;52.074;5.126;2022-09-20T10:46:20;7.15;;;0.82;;
20511;SDS011;10414;52.074;5.126;2022-09-20T10:48:57;4.15;;;0.90;;
20511;SDS011;10414;52.074;5.126;2022-09-20T10:51:33;5.30;;;0.80;;
20511;SDS011;10414;52.074;5.126;2022-09-20T10:54:11;3.38;;;0.80;;
20511;SDS011;10414;52.074;5.126;2022-09-20T10:56:51;3.67;;;0.80;;
20511;SDS011;10414;52.074;5.126;2022-09-20T10:59:33;3.75;;;1.00;;
20511;SDS011;10414;52.074;5.126;2022-09-20T11:02:12;6.45;;;0.93;;
20511;SDS011;10414;52.074;5.126;2022-09-20T11:04:57;6.15;;;0.90;;
20511;SDS011;10414;52.074;5.126;2022-09-20T11:07:50;2.88;;;0.80;;
20511;SDS011;10414;52.074;5.126;2022-09-20T11:10:24;6.88;;;1.00;;
20511;SDS011;10414;52.074;5.126;2022-09-20T11:12:57;4.00;;;0.90;;
20511;SDS011;10414;52.074;5.126;2022-09-20T11:15:28;5.38;;;1.08;;
20511;SDS011;10414;52.074;5.126;2022-09-20T11:17:59;8.48;;;3.03;;
20511;SDS011;10414;52.074;5.126;2022-09-20T11:20:34;6.93;;;2.38;;
20511;SDS011;10414;52.074;5.126;2022-09-20T11:23:09;5.07;;;0.90;;
20511;SDS011;10414;52.074;5.126;2022-09-20T11:25:41;4.15;;;1.00;;
20511;SDS011;10414;52.074;5.126;2022-09-20T11:28:13;2.72;;;0.60;;
20511;SDS011;10414;52.074;5.126;2022-09-20T11:30:47;4.35;;;0.95;;
20511;SDS011;10414;52.074;5.126;2022-09-20T11:33:20;4.80;;;1.20;;
20511;SDS011;10414;52.074;5.126;2022-09-20T11:35:54;2.33;;;0.80;;
20511;SDS011;10414;52.074;5.126;2022-09-20T11:38:25;5.25;;;1.02;;
20511;SDS011;10414;52.074;5.126;2022-09-20T11:40:59;3.88;;;0.70;;
20511;SDS011;10414;52.074;5.126;2022-09-20T11:43:32;3.67;;;0.80;;
20511;SDS011;10414;52.074;5.126;2022-09-20T11:46:05;7.35;;;0.90;;
20511;SDS011;10414;52.074;5.126;2022-09-20T11:48:37;6.15;;;0.80;;
20511;SDS011;10414;52.074;5.126;2022-09-20T11:51:14;5.95;;;1.52;;
20511;SDS011;10414;52.074;5.126;2022-09-20T11:54:17;4.25;;;0.80;;
20511;SDS011;10414;52.074;5.126;2022-09-20T11:56:55;4.93;;;0.80;;
20511;SDS011;10414;52.074;5.126;2022-09-20T11:59:34;7.40;;;2.13;;
20511;SDS011;10414;52.074;5.126;2022-09-20T12:02:13;5.82;;;0.90;;
20511;SDS011;10414;52.074;5.126;2022-09-20T12:04:45;6.22;;;0.95;;
20511;SDS011;10414;52.074;5.126;2022-09-20T12:07:18;6.00;;;0.98;;
20511;SDS011;10414;52.074;5.126;2022-09-20T12:09:51;4.72;;;1.00;;
20511;SDS011;10414;52.074;5.126;2022-09-20T12:12:30;5.00;;;0.93;;
20511;SDS011;10414;52.074;5.126;2022-09-20T12:15:03;4.95;;;0.90;;
20511;SDS011;10414;52.074;5.126;2022-09-20T12:21:02;7.65;;;1.05;;
20511;SDS011;10414;52.074;5.126;2022-09-20T12:26:46;4.38;;;1.00;;
20511;SDS011;10414;52.074;5.126;2022-09-20T12:32:33;4.88;;;1.27;;
20511;SDS011;10414;52.074;5.126;2022-09-20T12:38:25;10.18;;;1.40;;
20511;SDS011;10414;52.074;5.126;2022-09-20T12:41:07;8.63;;;1.85;;
20511;SDS011;10414;52.074;5.126;2022-09-20T12:43:38;6.90;;;1.60;;
20511;SDS011;10414;52.074;5.126;2022-09-20T12:46:22;9.18;;;2.65;;
20511;SDS011;10414;52.074;5.126;2022-09-20T12:52:29;7.65;;;2.25;;
20511;SDS011;10414;52.074;5.126;2022-09-20T12:55:34;5.60;;;1.17;;
20511;SDS011;10414;52.074;5.126;2022-09-20T12:58:17;5.03;;;0.98;;
20511;SDS011;10414;52.074;5.126;2022-09-20T13:07:31;4.28;;;0.98;;
20511;SDS011;10414;52.074;5.126;2022-09-20T13:10:19;4.55;;;1.33;;
20511;SDS011;10414;52.074;5.126;2022-09-20T13:15:55;6.78;;;1.58;;
20511;SDS011;10414;52.074;5.126;2022-09-20T13:18:23;3.95;;;1.33;;
20511;SDS011;10414;52.074;5.126;2022-09-20T13:20:54;8.30;;;2.10;;
20511;SDS011;10414;52.074;5.126;2022-09-20T13:23:24;4.55;;;1.00;;
20511;SDS011;10414;52.074;5.126;2022-09-20T13:25:54;5.13;;;1.20;;
20511;SDS011;10414;52.074;5.126;2022-09-20T13:28:28;6.72;;;0.90;;
20511;SDS011;10414;52.074;5.126;2022-09-20T13:31:15;6.25;;;0.80;;
20511;SDS011;10414;52.074;5.126;2022-09-20T13:33:50;6.88;;;1.30;;
20511;SDS011;10414;52.074;5.126;2022-09-20T13:36:20;2.80;;;0.70;;
20511;SDS011;10414;52.074;5.126;2022-09-20T13:38:52;6.03;;;1.00;;
20511;SDS011;10414;52.074;5.126;2022-09-20T13:41:20;5.78;;;0.93;;
20511;SDS011;10414;52.074;5.126;2022-09-20T13:43:48;3.38;;;0.70;;
20511;SDS011;10414;52.074;5.126;2022-09-20T13:46:20;4.70;;;1.00;;
20511;SDS011;10414;52.074;5.126;2022-09-20T13:48:51;5.40;;;1.08;;
20511;SDS011;10414;52.074;5.126;2022-09-20T13:51:25;6.75;;;1.27;;
20511;SDS011;10414;52.074;5.126;2022-09-20T13:53:53;4.45;;;0.90;;
20511;SDS011;10414;52.074;5.126;2022-09-20T13:56:45;3.80;;;1.23;;
20511;SDS011;10414;52.074;5.126;2022-09-20T13:59:13;5.72;;;1.00;;
20511;SDS011;10414;52.074;5.126;2022-09-20T14:01:41;5.90;;;1.33;;
20511;SDS011;10414;52.074;5.126;2022-09-20T14:04:14;5.10;;;1.00;;
20511;SDS011;10414;52.074;5.126;2022-09-20T14:06:44;5.57;;;0.93;;
20511;SDS011;10414;52.074;5.126;2022-09-20T14:09:16;4.05;;;1.08;;
20511;SDS011;10414;52.074;5.126;2022-09-20T14:11:46;5.43;;;1.00;;
20511;SDS011;10414;52.074;5.126;2022-09-20T14:14:14;3.15;;;0.90;;
20511;SDS011;10414;52.074;5.126;2022-09-20T14:16:42;6.65;;;1.10;;
20511;SDS011;10414;52.074;5.126;2022-09-20T14:19:11;5.22;;;0.70;;
20511;SDS011;10414;52.074;5.126;2022-09-20T14:21:40;3.80;;;1.00;;
20511;SDS011;10414;52.074;5.126;2022-09-20T14:24:22;4.43;;;0.80;;
20511;SDS011;10414;52.074;5.126;2022-09-20T14:27:00;4.28;;;0.95;;
20511;SDS011;10414;52.074;5.126;2022-09-20T14:29:36;5.50;;;0.70;;
20511;SDS011;10414;52.074;5.126;2022-09-20T14:32:05;6.15;;;1.25;;
20511;SDS011;10414;52.074;5.126;2022-09-20T14:34:37;4.65;;;0.68;;
20511;SDS011;10414;52.074;5.126;2022-09-20T14:37:05;2.92;;;0.63;;
20511;SDS011;10414;52.074;5.126;2022-09-20T14:39:45;3.42;;;0.80;;
20511;SDS011;10414;52.074;5.126;2022-09-20T14:42:17;4.93;;;0.80;;
20511;SDS011;10414;52.074;5.126;2022-09-20T14:44:48;6.57;;;0.93;;
20511;SDS011;10414;52.074;5.126;2022-09-20T14:47:22;4.38;;;0.77;;
20511;SDS011;10414;52.074;5.126;2022-09-20T14:49:53;5.20;;;0.90;;
20511;SDS011;10414;52.074;5.126;2022-09-20T14:52:35;3.13;;;0.80;;
20511;SDS011;10414;52.074;5.126;2022-09-20T14:55:22;7.57;;;1.05;;
20511;SDS011;10414;52.074;5.126;2022-09-20T14:57:52;5.80;;;0.80;;
20511;SDS011;10414;52.074;5.126;2022-09-20T15:00:23;5.22;;;0.80;;
20511;SDS011;10414;52.074;5.126;2022-09-20T15:02:50;4.88;;;0.75;;
20511;SDS011;10414;52.074;5.126;2022-09-20T15:05:19;4.63;;;0.70;;
20511;SDS011;10414;52.074;5.126;2022-09-20T15:07:50;8.38;;;1.00;;
20511;SDS011;10414;52.074;5.126;2022-09-20T15:10:18;5.03;;;1.05;;
20511;SDS011;10414;52.074;5.126;2022-09-20T15:12:46;6.90;;;1.00;;
20511;SDS011;10414;52.074;5.126;2022-09-20T15:15:15;5.90;;;0.90;;
20511;SDS011;10414;52.074;5.126;2022-09-20T15:17:43;6.70;;;0.93;;
20511;SDS011;10414;52.074;5.126;2022-09-20T15:20:13;6.07;;;1.23;;
20511;SDS011;10414;52.074;5.126;2022-09-20T15:22:42;5.43;;;0.95;;
20511;SDS011;10414;52.074;5.126;2022-09-20T15:25:12;6.63;;;1.40;;
20511;SDS011;10414;52.074;5.126;2022-09-20T15:27:41;6.43;;;0.93;;
20511;SDS011;10414;52.074;5.126;2022-09-20T15:30:13;5.75;;;1.20;;
20511;SDS011;10414;52.074;5.126;2022-09-20T15:32:41;3.75;;;0.90;;
20511;SDS011;10414;52.074;5.126;2022-09-20T15:35:09;5.85;;;1.00;;
20511;SDS011;10414;52.074;5.126;2022-09-20T15:37:38;4.05;;;0.98;;
20511;SDS011;10414;52.074;5.126;2022-09-20T15:40:06;4.82;;;1.00;;
20511;SDS011;10414;52.074;5.126;2022-09-20T15:42:34;10.00;;;0.88;;
20511;SDS011;10414;52.074;5.126;2022-09-20T15:45:03;5.40;;;1.00;;
20511;SDS011;10414;52.074;5.126;2022-09-20T15:47:34;8.02;;;1.20;;
20511;SDS011;10414;52.074;5.126;2022-09-20T15:50:01;6.72;;;1.08;;
20511;SDS011;10414;52.074;5.126;2022-09-20T15:52:32;9.05;;;1.00;;
20511;SDS011;10414;52.074;5.126;2022-09-20T15:55:00;4.43;;;1.10;;
20511;SDS011;10414;52.074;5.126;2022-09-20T15:57:27;7.97;;;1.20;;
20511;SDS011;10414;52.074;5.126;2022-09-20T15:59:55;8.85;;;1.25;;
20511;SDS011;10414;52.074;5.126;2022-09-20T16:02:23;6.45;;;1.10;;
20511;SDS011;10414;52.074;5.126;2022-09-20T16:04:51;4.57;;;0.80;;
20511;SDS011;10414;52.074;5.126;2022-09-20T16:07:20;4.38;;;0.88;;
20511;SDS011;10414;52.074;5.126;2022-09-20T16:09:49;3.03;;;0.80;;
20511;SDS011;10414;52.074;5.126;2022-09-20T16:12:16;3.58;;;0.98;;
20511;SDS011;10414;52.074;5.126;2022-09-20T16:14:43;4.30;;;0.70;;
20511;SDS011;10414;52.074;5.126;2022-09-20T16:17:10;5.00;;;0.93;;
20511;SDS011;10414;52.074;5.126;2022-09-20T16:19:37;4.40;;;0.90;;
20511;SDS011;10414;52.074;5.126;2022-09-20T16:22:05;6.40;;;0.90;;
20511;SDS011;10414;52.074;5.126;2022-09-20T16:24:33;3.53;;;0.80;;
20511;SDS011;10414;52.074;5.126;2022-09-20T16:27:01;4.53;;;0.80;;
20511;SDS011;10414;52.074;5.126;2022-09-20T16:29:30;8.52;;;1.10;;
20511;SDS011;10414;52.074;5.126;2022-09-20T16:31:58;6.20;;;1.08;;
20511;SDS011;10414;52.074;5.126;2022-09-20T16:34:28;6.45;;;1.00;;
20511;SDS011;10414;52.074;5.126;2022-09-20T16:36:56;7.25;;;1.00;;
20511;SDS011;10414;52.074;5.126;2022-09-20T16:39:26;5.53;;;1.25;;
20511;SDS011;10414;52.074;5.126;2022-09-20T16:41:54;4.53;;;0.90;;
20511;SDS011;10414;52.074;5.126;2022-09-20T16:44:23;4.40;;;0.90;;